createdAt,value
2017-10-30T00:02:00.629Z,99.90
2017-10-30T00:04:37.792Z,99.90
2017-10-30T00:07:28.390Z,99.90
2017-10-30T00:09:57.058Z,99.90
2017-10-30T00:12:23.121Z,99.90
2017-10-30T00:14:49.818Z,99.90
2017-10-30T00:17:22.450Z,99.90
2017-10-30T00:19:48.551Z,99.90
2017-10-30T00:22:14.653Z,99.90
2017-10-30T00:24:51.669Z,99.90
2017-10-30T00:27:43.345Z,99.90
2017-10-30T00:30:22.244Z,99.90
2017-10-30T00:32:51.954Z,99.90
2017-10-30T00:35:24.298Z,99.90
2017-10-30T00:37:51.109Z,99.90
2017-10-30T00:40:18.121Z,99.90
2017-10-30T00:42:46.342Z,99.90
2017-10-30T00:45:29.429Z,99.90
2017-10-30T00:48:06.374Z,99.90
2017-10-30T00:50:37.918Z,99.90
2017-10-30T00:53:09.410Z,99.90
2017-10-30T00:58:31.355Z,99.90
2017-10-30T01:00:57.357Z,99.90
2017-10-30T01:03:35.462Z,99.90
2017-10-30T01:06:13.164Z,99.90
2017-10-30T01:08:39.895Z,99.90
2017-10-30T01:11:23.042Z,99.90
2017-10-30T01:13:50.138Z,99.90
2017-10-30T01:16:17.110Z,99.90
2017-10-30T01:18:43.193Z,99.90
2017-10-30T01:21:18.000Z,99.90
2017-10-30T01:23:45.963Z,99.90
2017-10-30T01:26:12.797Z,99.90
2017-10-30T01:28:41.581Z,99.90
2017-10-30T01:31:11.302Z,99.90
2017-10-30T01:33:40.806Z,99.90
2017-10-30T01:36:10.326Z,99.90
2017-10-30T01:38:37.335Z,99.90
2017-10-30T01:41:03.266Z,99.90
2017-10-30T01:43:29.199Z,99.90
2017-10-30T01:46:00.378Z,99.90
2017-10-30T01:48:39.945Z,99.90
2017-10-30T01:51:05.861Z,99.90
2017-10-30T01:53:44.972Z,99.90
2017-10-30T01:56:29.755Z,99.90
2017-10-30T01:59:04.170Z,99.90
2017-10-30T02:01:31.887Z,99.90
2017-10-30T02:04:07.893Z,99.90
2017-10-30T02:06:41.474Z,99.90
2017-10-30T02:09:08.210Z,99.90
2017-10-30T02:11:34.217Z,99.90
2017-10-30T02:14:00.133Z,99.90
2017-10-30T02:16:27.115Z,99.90
2017-10-30T02:18:53.154Z,99.90
2017-10-30T02:24:12.833Z,99.90
2017-10-30T02:26:38.853Z,99.90
2017-10-30T02:29:13.818Z,99.90
2017-10-30T02:31:42.607Z,99.90
2017-10-30T02:34:09.311Z,99.90
2017-10-30T02:36:36.262Z,99.90
2017-10-30T02:39:07.377Z,99.90
2017-10-30T02:41:36.834Z,99.90
2017-10-30T02:44:02.867Z,99.90
2017-10-30T02:46:28.886Z,99.90
2017-10-30T02:48:59.006Z,99.90
2017-10-30T02:51:29.432Z,99.90
2017-10-30T02:54:01.950Z,99.90
2017-10-30T02:56:32.349Z,99.90
2017-10-30T02:58:58.370Z,99.90
2017-10-30T03:01:36.189Z,99.90
2017-10-30T03:04:03.118Z,99.90
2017-10-30T03:06:29.081Z,99.90
2017-10-30T03:08:55.785Z,99.90
2017-10-30T03:11:23.821Z,99.90
2017-10-30T03:14:01.689Z,99.90
2017-10-30T03:16:32.143Z,99.90
2017-10-30T03:18:58.778Z,99.90
2017-10-30T03:21:27.546Z,99.90
2017-10-30T03:23:53.454Z,99.90
2017-10-30T03:26:23.077Z,99.90
2017-10-30T03:28:51.045Z,99.90
2017-10-30T03:31:24.793Z,99.90
2017-10-30T03:34:03.706Z,99.90
2017-10-30T03:36:36.855Z,99.90
2017-10-30T03:39:02.775Z,99.90
2017-10-30T03:41:46.886Z,99.90
2017-10-30T03:44:34.551Z,99.90
2017-10-30T03:47:01.526Z,99.90
2017-10-30T03:49:40.887Z,99.90
2017-10-30T03:52:16.310Z,99.90
2017-10-30T03:54:42.981Z,99.90
2017-10-30T03:57:15.870Z,99.90
2017-10-30T03:59:48.241Z,99.90
2017-10-30T04:02:15.246Z,99.90
2017-10-30T04:04:41.285Z,99.90
2017-10-30T04:07:14.590Z,99.90
2017-10-30T04:09:46.343Z,99.90
2017-10-30T04:12:24.865Z,99.90
2017-10-30T04:15:03.276Z,99.90
2017-10-30T04:17:29.286Z,99.90
2017-10-30T04:20:13.079Z,99.90
2017-10-30T04:22:49.834Z,99.90
2017-10-30T04:25:16.490Z,99.90
2017-10-30T04:27:54.765Z,99.90
2017-10-30T04:30:34.130Z,99.90
2017-10-30T04:33:12.814Z,99.90
2017-10-30T04:35:40.769Z,99.90
2017-10-30T04:38:24.450Z,99.90
2017-10-30T04:40:58.046Z,99.90
2017-10-30T04:43:26.794Z,99.90
2017-10-30T04:46:05.983Z,99.90
2017-10-30T04:48:31.962Z,99.90
2017-10-30T04:51:22.227Z,99.90
2017-10-30T04:54:00.174Z,99.90
2017-10-30T04:56:31.649Z,99.90
2017-10-30T04:59:09.406Z,99.90
2017-10-30T05:01:46.188Z,99.90
2017-10-30T05:04:17.726Z,99.90
2017-10-30T05:06:44.661Z,99.90
2017-10-30T05:09:18.712Z,99.90
2017-10-30T05:11:53.339Z,99.90
2017-10-30T05:14:39.745Z,99.90
2017-10-30T05:17:17.548Z,99.90
2017-10-30T05:19:45.487Z,99.90
2017-10-30T05:22:12.467Z,99.90
2017-10-30T05:24:38.419Z,99.90
2017-10-30T05:27:06.455Z,99.90
2017-10-30T05:29:43.734Z,99.90
2017-10-30T05:32:12.434Z,99.90
2017-10-30T05:34:39.198Z,99.90
2017-10-30T05:37:06.218Z,99.90
2017-10-30T05:39:32.243Z,99.90
2017-10-30T05:41:59.174Z,99.90
2017-10-30T05:44:30.475Z,99.90
2017-10-30T05:47:03.337Z,99.90
2017-10-30T05:49:31.105Z,99.90
2017-10-30T05:51:59.061Z,99.90
2017-10-30T05:54:37.794Z,99.90
2017-10-30T05:57:05.747Z,99.90
2017-10-30T05:59:32.732Z,99.90
2017-10-30T06:02:18.655Z,99.90
2017-10-30T06:04:57.166Z,99.90
2017-10-30T06:07:35.950Z,99.90
2017-10-30T06:10:13.538Z,99.90
2017-10-30T06:12:43.751Z,99.90
2017-10-30T06:15:16.191Z,99.90
2017-10-30T06:17:57.946Z,99.90
2017-10-30T06:20:25.914Z,99.90
2017-10-30T06:22:52.631Z,99.90
2017-10-30T06:25:18.572Z,99.90
2017-10-30T06:28:01.101Z,99.90
2017-10-30T06:30:41.863Z,99.90
2017-10-30T06:33:18.521Z,99.90
2017-10-30T06:35:46.287Z,99.90
2017-10-30T06:38:13.023Z,99.90
2017-10-30T06:40:39.683Z,99.90
2017-10-30T06:43:09.681Z,99.90
2017-10-30T06:45:35.702Z,99.90
2017-10-30T06:48:01.753Z,99.90
2017-10-30T06:50:35.278Z,99.90
2017-10-30T06:53:04.862Z,99.90
2017-10-30T06:55:40.114Z,99.90
2017-10-30T06:58:08.183Z,99.90
2017-10-30T07:00:35.149Z,99.90
2017-10-30T07:03:01.072Z,99.90
2017-10-30T07:05:33.206Z,99.90
2017-10-30T07:07:59.267Z,99.90
2017-10-30T07:10:30.808Z,99.90
2017-10-30T07:12:57.752Z,99.90
2017-10-30T07:15:23.777Z,99.90
2017-10-30T07:17:53.901Z,99.90
2017-10-30T07:20:21.908Z,99.90
2017-10-30T07:23:10.185Z,99.90
2017-10-30T07:25:36.142Z,99.90
2017-10-30T07:28:06.782Z,99.90
2017-10-30T07:30:34.725Z,99.90
2017-10-30T07:33:01.703Z,99.90
2017-10-30T07:35:31.317Z,99.90
2017-10-30T07:37:57.698Z,99.90
2017-10-30T07:40:25.725Z,99.90
2017-10-30T07:42:58.728Z,99.90
2017-10-30T07:45:25.448Z,99.90
2017-10-30T07:47:53.401Z,99.90
2017-10-30T07:50:24.051Z,99.90
2017-10-30T07:52:50.029Z,99.90
2017-10-30T07:55:23.905Z,99.90
2017-10-30T07:57:51.191Z,99.90
2017-10-30T08:00:22.990Z,99.90
2017-10-30T08:02:54.775Z,99.90
2017-10-30T08:05:20.782Z,99.90
2017-10-30T08:07:52.581Z,99.90
2017-10-30T08:10:23.093Z,99.90
2017-10-30T08:12:49.137Z,99.90
2017-10-30T08:15:15.048Z,99.90
2017-10-30T08:17:44.754Z,99.90
2017-10-30T08:20:21.497Z,99.90
2017-10-30T08:22:48.498Z,99.90
2017-10-30T08:25:14.514Z,99.90
2017-10-30T08:27:53.298Z,99.90
2017-10-30T08:30:22.941Z,99.90
2017-10-30T08:32:48.857Z,99.90
2017-10-30T08:35:18.914Z,99.90
2017-10-30T08:37:58.346Z,99.90
2017-10-30T08:40:24.350Z,99.90
2017-10-30T08:42:50.277Z,99.90
2017-10-30T08:45:16.236Z,99.90
2017-10-30T08:47:42.246Z,99.90
2017-10-30T08:50:11.776Z,99.90
2017-10-30T08:52:38.522Z,99.90
2017-10-30T08:55:15.608Z,99.90
2017-10-30T08:57:43.351Z,99.90
2017-10-30T09:00:10.316Z,99.90
2017-10-30T09:02:38.071Z,99.90
2017-10-30T09:05:04.095Z,99.90
2017-10-30T09:07:31.053Z,99.90
2017-10-30T09:09:56.966Z,99.90
2017-10-30T09:12:22.906Z,99.90
2017-10-30T09:14:50.882Z,99.90
2017-10-30T09:17:29.956Z,99.90
2017-10-30T09:19:56.957Z,99.90
2017-10-30T09:22:23.040Z,99.90
2017-10-30T09:24:56.711Z,99.90
2017-10-30T09:27:24.669Z,99.90
2017-10-30T09:29:53.862Z,99.90
2017-10-30T09:32:23.677Z,99.90
2017-10-30T09:34:49.608Z,99.90
2017-10-30T09:37:17.591Z,99.90
2017-10-30T09:39:50.290Z,99.90
2017-10-30T09:42:17.001Z,99.90
2017-10-30T09:44:44.978Z,99.90
2017-10-30T09:47:11.994Z,99.90
2017-10-30T09:49:37.983Z,99.90
2017-10-30T09:52:06.658Z,99.90
2017-10-30T09:54:47.770Z,99.90
2017-10-30T09:57:16.514Z,99.90
2017-10-30T09:59:49.631Z,99.90
2017-10-30T10:02:18.289Z,99.90
2017-10-30T10:04:50.919Z,99.90
2017-10-30T10:07:23.357Z,99.90
2017-10-30T10:09:49.263Z,99.90
2017-10-30T10:12:15.206Z,99.90
2017-10-30T10:14:41.108Z,99.90
2017-10-30T10:17:07.073Z,99.90
2017-10-30T10:19:33.999Z,99.90
2017-10-30T10:21:59.934Z,99.90
2017-10-30T10:24:34.519Z,99.90
2017-10-30T10:27:00.505Z,99.90
2017-10-30T10:29:26.513Z,99.90
2017-10-30T10:31:54.494Z,99.90
2017-10-30T10:34:21.450Z,99.90
2017-10-30T10:37:01.550Z,99.90
2017-10-30T10:39:27.517Z,99.90
2017-10-30T10:41:58.865Z,99.90
2017-10-30T10:44:24.811Z,99.90
2017-10-30T10:46:55.425Z,99.90
2017-10-30T10:49:29.889Z,99.80
2017-10-30T10:52:04.334Z,99.00
2017-10-30T10:54:32.351Z,99.30
2017-10-30T10:56:58.302Z,99.60
2017-10-30T10:59:28.138Z,99.90
2017-10-30T11:01:58.542Z,99.20
2017-10-30T11:04:29.622Z,99.20
2017-10-30T11:06:55.593Z,98.80
2017-10-30T11:09:28.618Z,96.70
2017-10-30T11:11:56.384Z,94.50
2017-10-30T11:14:23.118Z,94.80
2017-10-30T11:16:49.139Z,94.80
2017-10-30T11:19:15.186Z,93.90
2017-10-30T11:21:43.159Z,93.10
2017-10-30T11:24:31.871Z,92.60
2017-10-30T11:26:59.954Z,92.50
2017-10-30T11:29:29.266Z,92.80
2017-10-30T11:31:58.883Z,93.20
2017-10-30T11:34:24.913Z,93.70
2017-10-30T11:36:50.978Z,93.00
2017-10-30T11:39:21.469Z,93.00
2017-10-30T11:41:47.409Z,93.00
2017-10-30T11:44:13.454Z,94.90
2017-10-30T11:46:39.411Z,93.30
2017-10-30T11:49:05.348Z,92.60
2017-10-30T11:51:33.556Z,93.30
2017-10-30T11:54:03.938Z,93.00
2017-10-30T11:56:29.846Z,92.70
2017-10-30T11:58:56.574Z,90.40
2017-10-30T12:01:27.523Z,90.40
2017-10-30T12:03:54.462Z,88.10
2017-10-30T12:06:20.386Z,86.20
2017-10-30T12:08:50.121Z,85.80
2017-10-30T12:11:18.786Z,89.50
2017-10-30T12:13:48.306Z,89.50
2017-10-30T12:16:17.934Z,87.50
2017-10-30T12:18:46.710Z,89.10
2017-10-30T12:21:18.674Z,87.50
2017-10-30T12:23:44.689Z,87.40
2017-10-30T12:26:11.657Z,88.10
2017-10-30T12:28:38.605Z,89.40
2017-10-30T12:31:12.529Z,87.30
2017-10-30T12:33:45.302Z,89.20
2017-10-30T12:39:08.669Z,87.10
2017-10-30T12:41:36.637Z,85.50
2017-10-30T12:44:03.592Z,86.90
2017-10-30T12:46:29.648Z,88.80
2017-10-30T12:49:08.658Z,86.40
2017-10-30T12:51:34.674Z,86.30
2017-10-30T12:54:01.613Z,81.10
2017-10-30T12:56:31.218Z,83.00
2017-10-30T12:58:57.166Z,83.00
2017-10-30T13:01:28.086Z,84.10
2017-10-30T13:03:54.026Z,82.50
2017-10-30T13:06:19.951Z,81.70
2017-10-30T13:08:47.945Z,81.30
2017-10-30T13:11:22.927Z,81.70
2017-10-30T13:14:02.238Z,80.90
2017-10-30T13:16:32.047Z,82.40
2017-10-30T13:18:59.788Z,79.90
2017-10-30T13:21:25.825Z,79.90
2017-10-30T13:23:53.589Z,80.30
2017-10-30T13:26:19.590Z,79.30
2017-10-30T13:28:52.514Z,81.00
2017-10-30T13:31:29.967Z,84.60
2017-10-30T13:33:57.967Z,84.50
2017-10-30T13:36:23.973Z,86.20
2017-10-30T13:38:49.974Z,87.20
2017-10-30T13:41:19.098Z,88.20
2017-10-30T13:43:51.422Z,87.00
2017-10-30T13:46:19.141Z,89.20
2017-10-30T13:48:45.106Z,89.20
2017-10-30T13:51:11.827Z,90.70
2017-10-30T13:53:37.862Z,90.70
2017-10-30T13:56:06.688Z,91.10
2017-10-30T13:58:33.154Z,91.30
2017-10-30T14:01:03.406Z,91.70
2017-10-30T14:03:31.393Z,92.00
2017-10-30T14:05:58.342Z,91.80
2017-10-30T14:08:29.985Z,91.90
2017-10-30T14:10:56.030Z,91.80
2017-10-30T14:13:22.020Z,92.30
2017-10-30T14:15:50.030Z,92.00
2017-10-30T14:18:15.933Z,92.60
2017-10-30T14:20:55.543Z,93.50
2017-10-30T14:23:25.421Z,93.20
2017-10-30T14:25:51.346Z,93.50
2017-10-30T14:28:17.375Z,93.90
2017-10-30T14:30:43.698Z,93.80
2017-10-30T14:33:11.156Z,94.00
2017-10-30T14:35:39.961Z,94.70
2017-10-30T14:38:05.881Z,94.70
2017-10-30T14:40:31.810Z,94.90
2017-10-30T14:42:57.734Z,94.90
2017-10-30T14:45:25.445Z,94.40
2017-10-30T14:47:51.530Z,94.30
2017-10-30T14:50:18.952Z,94.50
2017-10-30T14:52:44.914Z,93.90
2017-10-30T14:55:10.865Z,94.70
2017-10-30T14:57:38.834Z,94.70
2017-10-30T15:00:05.777Z,95.00
2017-10-30T15:02:31.700Z,94.90
2017-10-30T15:04:57.625Z,94.60
2017-10-30T15:07:29.270Z,94.80
2017-10-30T15:09:55.911Z,95.30
2017-10-30T15:12:29.133Z,95.90
2017-10-30T15:14:59.647Z,96.40
2017-10-30T15:17:47.606Z,96.80
2017-10-30T15:20:14.549Z,96.60
2017-10-30T15:22:42.318Z,97.10
2017-10-30T15:25:15.010Z,97.10
2017-10-30T15:27:45.530Z,98.50
2017-10-30T15:30:11.450Z,98.50
2017-10-30T15:32:40.861Z,98.30
2017-10-30T15:35:06.773Z,98.30
2017-10-30T15:37:32.675Z,99.00
2017-10-30T15:40:03.449Z,99.00
2017-10-30T15:42:29.375Z,98.70
2017-10-30T15:44:56.343Z,98.70
2017-10-30T15:47:23.261Z,99.10
2017-10-30T15:49:52.390Z,99.50
2017-10-30T15:52:19.326Z,99.80
2017-10-30T15:54:54.117Z,99.60
2017-10-30T15:57:20.034Z,99.90
2017-10-30T15:59:50.012Z,99.90
2017-10-30T16:02:16.034Z,99.90
2017-10-30T16:04:42.087Z,99.90
2017-10-30T16:07:19.262Z,99.90
2017-10-30T16:10:03.020Z,99.90
2017-10-30T16:12:33.511Z,99.90
2017-10-30T16:15:02.871Z,99.90
2017-10-30T16:17:30.793Z,99.90
2017-10-30T16:19:56.826Z,99.90
2017-10-30T16:22:26.526Z,99.90
2017-10-30T16:25:05.099Z,99.90
2017-10-30T16:27:33.029Z,99.90
2017-10-30T16:29:59.045Z,99.90
2017-10-30T16:32:26.016Z,99.90
2017-10-30T16:34:51.917Z,99.90
2017-10-30T16:37:21.761Z,99.90
2017-10-30T16:39:51.450Z,99.90
2017-10-30T16:42:17.399Z,99.90
2017-10-30T16:44:56.221Z,99.90
2017-10-30T16:47:23.169Z,99.90
2017-10-30T16:49:49.205Z,99.90
2017-10-30T16:52:15.923Z,99.90
2017-10-30T16:54:41.842Z,99.90
2017-10-30T16:57:07.789Z,99.90
2017-10-30T16:59:35.793Z,99.90
2017-10-30T17:02:04.554Z,99.90
2017-10-30T17:04:44.346Z,99.90
2017-10-30T17:07:13.951Z,99.90
2017-10-30T17:09:45.258Z,99.90
2017-10-30T17:12:11.318Z,99.90
2017-10-30T17:14:38.124Z,99.90
2017-10-30T17:17:04.058Z,99.90
2017-10-30T17:19:34.086Z,99.90
2017-10-30T17:22:00.114Z,99.90
2017-10-30T17:24:27.121Z,99.90
2017-10-30T17:26:53.206Z,99.90
2017-10-30T17:29:19.237Z,99.90
2017-10-30T17:31:46.022Z,99.90
2017-10-30T17:34:17.842Z,99.90
2017-10-30T17:36:43.861Z,99.90
2017-10-30T17:39:09.890Z,99.90
2017-10-30T17:41:35.862Z,99.90
2017-10-30T17:44:01.846Z,99.90
2017-10-30T17:46:27.779Z,99.90
2017-10-30T17:49:03.851Z,99.90
2017-10-30T17:51:34.402Z,99.90
2017-10-30T17:54:17.102Z,99.90
2017-10-30T17:56:45.773Z,99.90
2017-10-30T17:59:11.782Z,99.90
2017-10-30T18:01:37.741Z,99.90
2017-10-30T18:04:05.493Z,99.90
2017-10-30T18:06:31.522Z,99.90
2017-10-30T18:08:57.440Z,99.90
2017-10-30T18:11:30.478Z,99.90
2017-10-30T18:14:03.571Z,99.90
2017-10-30T18:16:40.626Z,99.90
2017-10-30T18:19:10.118Z,99.90
2017-10-30T18:21:36.230Z,99.90
2017-10-30T18:24:03.206Z,99.90
2017-10-30T18:26:30.154Z,99.90
2017-10-30T18:29:00.912Z,99.90
2017-10-30T18:31:41.474Z,99.90
2017-10-30T18:34:33.153Z,99.90
2017-10-30T18:39:56.594Z,99.90
2017-10-30T18:42:22.566Z,99.90
2017-10-30T18:44:48.605Z,99.90
2017-10-30T18:47:16.578Z,99.90
2017-10-30T18:49:42.590Z,99.90
2017-10-30T18:52:11.849Z,99.90
2017-10-30T18:54:52.330Z,99.90
2017-10-30T18:57:18.285Z,99.90
2017-10-30T18:59:47.930Z,99.90
2017-10-30T19:02:14.590Z,99.90
2017-10-30T19:04:57.722Z,99.90
2017-10-30T19:07:28.468Z,99.90
2017-10-30T19:09:55.520Z,99.90
2017-10-30T19:12:24.248Z,99.90
2017-10-30T19:14:51.294Z,99.90
2017-10-30T19:17:32.656Z,99.90
2017-10-30T19:22:55.802Z,99.90
2017-10-30T19:25:47.029Z,99.90
2017-10-30T19:28:14.068Z,99.90
2017-10-30T19:30:47.235Z,99.90
2017-10-30T19:33:15.187Z,99.90
2017-10-30T19:35:43.026Z,99.90
2017-10-30T19:41:02.956Z,99.90
2017-10-30T19:43:34.603Z,99.90
2017-10-30T19:46:07.753Z,99.90
2017-10-30T19:51:27.625Z,99.90
2017-10-30T19:53:59.541Z,99.90
2017-10-30T19:56:25.482Z,99.90
2017-10-30T19:58:59.705Z,99.90
2017-10-30T20:01:33.442Z,99.90
2017-10-30T20:04:14.035Z,99.90
2017-10-30T20:06:47.346Z,99.90
2017-10-30T20:09:19.602Z,99.90
2017-10-30T20:11:55.209Z,99.90
2017-10-30T20:14:34.623Z,99.90
2017-10-30T20:17:01.335Z,99.90
2017-10-30T20:19:27.282Z,99.90
2017-10-30T20:21:56.506Z,99.90
2017-10-30T20:24:27.013Z,99.90
2017-10-30T20:27:14.514Z,99.90
2017-10-30T20:32:39.854Z,99.90
2017-10-30T20:35:12.266Z,99.90
2017-10-30T20:37:41.849Z,99.90
2017-10-30T20:40:07.951Z,99.90
2017-10-30T20:42:34.050Z,99.90
2017-10-30T20:45:06.350Z,99.90
2017-10-30T20:47:35.838Z,99.90
2017-10-30T20:50:20.229Z,99.90
2017-10-30T20:53:07.380Z,99.90
2017-10-30T20:55:40.234Z,99.90
2017-10-30T20:58:09.021Z,99.90
2017-10-30T21:00:39.201Z,99.90
2017-10-30T21:03:15.529Z,99.90
2017-10-30T21:05:43.322Z,99.90
2017-10-30T21:08:13.819Z,99.90
2017-10-30T21:10:40.589Z,99.90
2017-10-30T21:13:17.986Z,99.90
2017-10-30T21:15:54.723Z,99.90
2017-10-30T21:18:21.562Z,99.90
2017-10-30T21:20:47.634Z,99.90
2017-10-30T21:23:13.682Z,99.90
2017-10-30T21:25:49.788Z,99.90
2017-10-30T21:28:26.262Z,99.90
2017-10-30T21:30:56.801Z,99.90
2017-10-30T21:33:25.564Z,99.90
2017-10-30T21:36:02.025Z,99.90
2017-10-30T21:38:30.732Z,99.90
2017-10-30T21:40:56.769Z,99.90
2017-10-30T21:43:28.833Z,99.90
2017-10-30T21:46:01.521Z,99.90
2017-10-30T21:48:42.118Z,99.90
2017-10-30T21:51:18.875Z,99.90
2017-10-30T21:53:54.212Z,99.90
2017-10-30T21:56:28.623Z,99.90
2017-10-30T21:58:56.406Z,99.90
2017-10-30T22:01:25.777Z,99.90
2017-10-30T22:03:51.801Z,99.90
2017-10-30T22:06:18.750Z,99.90
2017-10-30T22:08:58.242Z,99.90
2017-10-30T22:11:35.057Z,99.90
2017-10-30T22:14:01.149Z,99.90
2017-10-30T22:16:28.158Z,99.90
2017-10-30T22:18:58.475Z,99.90
2017-10-30T22:21:24.509Z,99.90
2017-10-30T22:23:50.538Z,99.90
2017-10-30T22:26:16.484Z,99.90
2017-10-30T22:28:46.402Z,99.90
2017-10-30T22:31:21.762Z,99.90
2017-10-30T22:33:56.086Z,99.90
2017-10-30T22:36:24.021Z,99.90
2017-10-30T22:39:05.044Z,99.90
2017-10-30T22:41:35.853Z,99.90
2017-10-30T22:44:02.551Z,99.90
2017-10-30T22:46:34.762Z,99.90
2017-10-30T22:49:06.130Z,99.90
2017-10-30T22:51:36.746Z,99.90
2017-10-30T22:54:19.545Z,99.90
2017-10-30T22:56:45.469Z,99.90
2017-10-30T22:59:14.898Z,99.90
2017-10-30T23:01:42.649Z,99.90
2017-10-30T23:04:08.704Z,99.90
2017-10-30T23:06:36.762Z,99.90
2017-10-30T23:09:21.167Z,99.90
2017-10-30T23:11:47.094Z,99.90
2017-10-30T23:14:16.536Z,99.90
2017-10-30T23:16:42.578Z,99.90
2017-10-30T23:19:12.378Z,99.90
2017-10-30T23:21:48.870Z,99.90
2017-10-30T23:24:26.649Z,99.90
2017-10-30T23:26:52.571Z,99.90
2017-10-30T23:29:18.653Z,99.90
2017-10-30T23:31:50.027Z,99.90
2017-10-30T23:34:22.446Z,99.90
2017-10-30T23:36:59.023Z,99.90
2017-10-30T23:39:31.902Z,99.90
2017-10-30T23:41:59.659Z,99.90
2017-10-30T23:44:25.683Z,99.90
2017-10-30T23:46:51.718Z,99.90
2017-10-30T23:49:26.153Z,99.90
2017-10-30T23:51:57.909Z,99.90
2017-10-30T23:54:34.393Z,99.90
2017-10-30T23:57:03.778Z,99.90
2017-10-30T23:59:50.357Z,99.90
